UTTT/TAS METAR and TAF weather

Enter ICAO airport designator
Station Type Date Time Source
UTTT METAR 2019/10/22 16:00 UTC NOAA

UTTT 221600Z VRB02KT CAVOK 13/M02 Q1023 R08R/CLRD70 NOSIG


Station Type Date Time Source
UTTT Decoded METAR 2019/10/22 16:00 UTC NOAA

Tashkent, Uzbekistan (UTTT) 41-16N 069-16E 488M
Oct 22, 2019 - 12:00 PM EDT / 2019.10.22 1600 UTC
Wind: Variable at 2 MPH (2 KT):0
Visibility: greater than 7 mile(s):0
Temperature: 55 F (13 C)
Dew Point: 28 F (-2 C)
Relative Humidity: 35%
Pressure (altimeter): 30.21 in. Hg (1023 hPa)
ob: UTTT 221600Z VRB02KT CAVOK 13/M02 Q1023 R08R/CLRD70 NOSIG
cycle: 16

Station Type Date Time Source
UTTT TAF 2019/10/22 12:09 UTC NOAA

TAF UTTT 221100Z 2212/2312 06012KT 7000 NSC

Example: see airport list